sensor_id;sensor_type;location;lat;lon;timestamp;P1;durP1;ratioP1;P2;durP2;ratioP2
27800;SDS011;15181;49.112;11.930;2022-08-19T00:01:21;21.77;;;19.95;;
27800;SDS011;15181;49.112;11.930;2022-08-19T00:03:49;22.48;;;20.58;;
27800;SDS011;15181;49.112;11.930;2022-08-19T00:06:16;21.27;;;19.52;;
27800;SDS011;15181;49.112;11.930;2022-08-19T00:08:43;23.20;;;21.23;;
27800;SDS011;15181;49.112;11.930;2022-08-19T00:11:11;21.33;;;19.55;;
27800;SDS011;15181;49.112;11.930;2022-08-19T00:13:39;18.77;;;17.17;;
27800;SDS011;15181;49.112;11.930;2022-08-19T00:16:07;21.85;;;20.05;;
27800;SDS011;15181;49.112;11.930;2022-08-19T00:18:34;23.42;;;21.33;;
27800;SDS011;15181;49.112;11.930;2022-08-19T00:21:02;22.10;;;20.20;;
27800;SDS011;15181;49.112;11.930;2022-08-19T00:23:34;20.48;;;18.85;;
27800;SDS011;15181;49.112;11.930;2022-08-19T00:26:02;19.45;;;17.92;;
27800;SDS011;15181;49.112;11.930;2022-08-19T00:28:30;20.02;;;18.33;;
27800;SDS011;15181;49.112;11.930;2022-08-19T00:30:58;18.27;;;16.67;;
27800;SDS011;15181;49.112;11.930;2022-08-19T00:33:29;18.25;;;16.75;;
27800;SDS011;15181;49.112;11.930;2022-08-19T00:35:57;20.10;;;18.50;;
27800;SDS011;15181;49.112;11.930;2022-08-19T00:38:24;19.58;;;17.98;;
27800;SDS011;15181;49.112;11.930;2022-08-19T00:40:51;21.38;;;19.45;;
27800;SDS011;15181;49.112;11.930;2022-08-19T00:43:19;21.40;;;19.63;;
27800;SDS011;15181;49.112;11.930;2022-08-19T00:45:49;21.20;;;19.20;;
27800;SDS011;15181;49.112;11.930;2022-08-19T00:48:18;19.52;;;17.77;;
27800;SDS011;15181;49.112;11.930;2022-08-19T00:50:49;18.85;;;17.15;;
27800;SDS011;15181;49.112;11.930;2022-08-19T00:53:19;18.92;;;17.23;;
27800;SDS011;15181;49.112;11.930;2022-08-19T00:55:49;21.38;;;19.58;;
27800;SDS011;15181;49.112;11.930;2022-08-19T00:58:20;21.48;;;19.48;;
27800;SDS011;15181;49.112;11.930;2022-08-19T01:00:49;21.98;;;20.13;;
27800;SDS011;15181;49.112;11.930;2022-08-19T01:03:17;21.50;;;19.80;;
27800;SDS011;15181;49.112;11.930;2022-08-19T01:05:49;23.13;;;21.23;;
27800;SDS011;15181;49.112;11.930;2022-08-19T01:08:18;21.38;;;19.52;;
27800;SDS011;15181;49.112;11.930;2022-08-19T01:10:47;22.45;;;20.35;;
27800;SDS011;15181;49.112;11.930;2022-08-19T01:13:22;22.95;;;20.75;;
27800;SDS011;15181;49.112;11.930;2022-08-19T01:15:52;23.15;;;21.13;;
27800;SDS011;15181;49.112;11.930;2022-08-19T01:18:22;24.02;;;21.83;;
27800;SDS011;15181;49.112;11.930;2022-08-19T01:20:52;20.00;;;18.20;;
27800;SDS011;15181;49.112;11.930;2022-08-19T01:23:26;20.38;;;18.65;;
27800;SDS011;15181;49.112;11.930;2022-08-19T01:26:08;21.95;;;20.08;;
27800;SDS011;15181;49.112;11.930;2022-08-19T01:28:37;22.90;;;21.15;;
27800;SDS011;15181;49.112;11.930;2022-08-19T01:31:12;23.27;;;21.08;;
27800;SDS011;15181;49.112;11.930;2022-08-19T01:33:41;25.27;;;23.05;;
27800;SDS011;15181;49.112;11.930;2022-08-19T01:36:10;21.15;;;19.35;;
27800;SDS011;15181;49.112;11.930;2022-08-19T01:38:41;21.80;;;19.80;;
27800;SDS011;15181;49.112;11.930;2022-08-19T01:41:10;24.50;;;22.40;;
27800;SDS011;15181;49.112;11.930;2022-08-19T01:43:37;20.33;;;18.60;;
27800;SDS011;15181;49.112;11.930;2022-08-19T01:46:05;20.20;;;18.40;;
27800;SDS011;15181;49.112;11.930;2022-08-19T01:48:33;16.92;;;15.40;;
27800;SDS011;15181;49.112;11.930;2022-08-19T01:51:01;22.30;;;20.40;;
27800;SDS011;15181;49.112;11.930;2022-08-19T01:53:28;21.00;;;19.10;;
27800;SDS011;15181;49.112;11.930;2022-08-19T01:55:57;21.10;;;19.38;;
27800;SDS011;15181;49.112;11.930;2022-08-19T01:58:26;23.17;;;21.27;;
27800;SDS011;15181;49.112;11.930;2022-08-19T02:00:56;24.30;;;22.35;;
27800;SDS011;15181;49.112;11.930;2022-08-19T02:03:24;24.75;;;22.73;;
27800;SDS011;15181;49.112;11.930;2022-08-19T02:05:54;23.67;;;21.67;;
27800;SDS011;15181;49.112;11.930;2022-08-19T02:08:23;23.55;;;21.67;;
27800;SDS011;15181;49.112;11.930;2022-08-19T02:10:50;21.63;;;19.90;;
27800;SDS011;15181;49.112;11.930;2022-08-19T02:13:19;22.02;;;20.23;;
27800;SDS011;15181;49.112;11.930;2022-08-19T02:15:46;22.80;;;20.85;;
27800;SDS011;15181;49.112;11.930;2022-08-19T02:18:13;22.23;;;20.42;;
27800;SDS011;15181;49.112;11.930;2022-08-19T02:20:41;22.08;;;20.17;;
27800;SDS011;15181;49.112;11.930;2022-08-19T02:23:10;20.65;;;18.80;;
27800;SDS011;15181;49.112;11.930;2022-08-19T02:25:38;19.15;;;17.55;;
27800;SDS011;15181;49.112;11.930;2022-08-19T02:28:05;20.13;;;18.50;;
27800;SDS011;15181;49.112;11.930;2022-08-19T02:30:34;18.60;;;17.10;;
27800;SDS011;15181;49.112;11.930;2022-08-19T02:33:01;20.23;;;18.52;;
27800;SDS011;15181;49.112;11.930;2022-08-19T02:35:28;20.38;;;18.83;;
27800;SDS011;15181;49.112;11.930;2022-08-19T02:37:55;20.83;;;19.13;;
27800;SDS011;15181;49.112;11.930;2022-08-19T02:40:40;19.10;;;17.50;;
27800;SDS011;15181;49.112;11.930;2022-08-19T02:43:07;20.52;;;18.88;;
27800;SDS011;15181;49.112;11.930;2022-08-19T02:45:38;19.13;;;17.52;;
27800;SDS011;15181;49.112;11.930;2022-08-19T02:48:05;19.02;;;17.33;;
27800;SDS011;15181;49.112;11.930;2022-08-19T02:50:32;18.33;;;16.73;;
27800;SDS011;15181;49.112;11.930;2022-08-19T02:52:59;18.52;;;16.73;;
27800;SDS011;15181;49.112;11.930;2022-08-19T02:55:26;21.10;;;19.20;;
27800;SDS011;15181;49.112;11.930;2022-08-19T02:57:53;20.10;;;18.50;;
27800;SDS011;15181;49.112;11.930;2022-08-19T03:00:22;19.45;;;17.85;;
27800;SDS011;15181;49.112;11.930;2022-08-19T03:02:51;19.70;;;18.02;;
27800;SDS011;15181;49.112;11.930;2022-08-19T03:05:18;20.33;;;18.73;;
27800;SDS011;15181;49.112;11.930;2022-08-19T03:07:45;20.50;;;18.70;;
27800;SDS011;15181;49.112;11.930;2022-08-19T03:10:12;18.98;;;17.17;;
27800;SDS011;15181;49.112;11.930;2022-08-19T03:12:39;20.63;;;19.02;;
27800;SDS011;15181;49.112;11.930;2022-08-19T03:15:06;20.48;;;18.67;;
27800;SDS011;15181;49.112;11.930;2022-08-19T03:17:34;21.27;;;19.38;;
27800;SDS011;15181;49.112;11.930;2022-08-19T03:20:04;18.77;;;16.92;;
27800;SDS011;15181;49.112;11.930;2022-08-19T03:22:31;18.83;;;17.15;;
27800;SDS011;15181;49.112;11.930;2022-08-19T03:24:59;18.90;;;17.30;;
27800;SDS011;15181;49.112;11.930;2022-08-19T03:27:26;18.75;;;17.15;;
27800;SDS011;15181;49.112;11.930;2022-08-19T03:29:54;16.33;;;14.85;;
27800;SDS011;15181;49.112;11.930;2022-08-19T03:32:21;19.40;;;17.75;;
27800;SDS011;15181;49.112;11.930;2022-08-19T03:34:48;20.30;;;18.70;;
27800;SDS011;15181;49.112;11.930;2022-08-19T03:37:18;21.15;;;19.27;;
27800;SDS011;15181;49.112;11.930;2022-08-19T03:39:47;18.92;;;17.23;;
27800;SDS011;15181;49.112;11.930;2022-08-19T03:42:14;19.42;;;17.67;;
27800;SDS011;15181;49.112;11.930;2022-08-19T03:44:42;19.25;;;17.63;;
27800;SDS011;15181;49.112;11.930;2022-08-19T03:47:09;18.13;;;16.63;;
27800;SDS011;15181;49.112;11.930;2022-08-19T03:49:40;18.48;;;16.88;;
27800;SDS011;15181;49.112;11.930;2022-08-19T03:52:08;20.58;;;17.80;;
27800;SDS011;15181;49.112;11.930;2022-08-19T03:54:36;17.17;;;15.88;;
27800;SDS011;15181;49.112;11.930;2022-08-19T03:57:04;19.45;;;17.85;;
27800;SDS011;15181;49.112;11.930;2022-08-19T03:59:33;18.77;;;17.23;;
27800;SDS011;15181;49.112;11.930;2022-08-19T04:02:10;20.02;;;18.40;;
27800;SDS011;15181;49.112;11.930;2022-08-19T04:04:39;18.77;;;17.35;;
27800;SDS011;15181;49.112;11.930;2022-08-19T04:07:08;21.58;;;19.67;;
27800;SDS011;15181;49.112;11.930;2022-08-19T04:09:39;21.48;;;19.50;;
27800;SDS011;15181;49.112;11.930;2022-08-19T04:12:07;18.10;;;16.60;;
27800;SDS011;15181;49.112;11.930;2022-08-19T04:14:35;17.88;;;16.52;;
27800;SDS011;15181;49.112;11.930;2022-08-19T04:17:02;20.20;;;18.60;;
27800;SDS011;15181;49.112;11.930;2022-08-19T04:19:31;19.92;;;18.42;;
27800;SDS011;15181;49.112;11.930;2022-08-19T04:21:59;17.48;;;16.17;;
27800;SDS011;15181;49.112;11.930;2022-08-19T04:24:26;19.67;;;18.08;;
27800;SDS011;15181;49.112;11.930;2022-08-19T04:26:55;20.63;;;18.92;;
27800;SDS011;15181;49.112;11.930;2022-08-19T04:29:23;20.83;;;19.05;;
27800;SDS011;15181;49.112;11.930;2022-08-19T04:31:52;19.60;;;18.00;;
27800;SDS011;15181;49.112;11.930;2022-08-19T04:34:21;20.30;;;18.50;;
27800;SDS011;15181;49.112;11.930;2022-08-19T04:36:49;20.45;;;18.85;;
27800;SDS011;15181;49.112;11.930;2022-08-19T04:39:19;19.25;;;17.85;;
27800;SDS011;15181;49.112;11.930;2022-08-19T04:41:48;20.02;;;18.52;;
27800;SDS011;15181;49.112;11.930;2022-08-19T04:44:34;17.38;;;15.85;;
27800;SDS011;15181;49.112;11.930;2022-08-19T04:47:02;17.38;;;15.90;;
27800;SDS011;15181;49.112;11.930;2022-08-19T04:49:31;18.75;;;17.23;;
27800;SDS011;15181;49.112;11.930;2022-08-19T04:51:58;18.23;;;16.73;;
27800;SDS011;15181;49.112;11.930;2022-08-19T04:54:25;20.27;;;18.60;;
27800;SDS011;15181;49.112;11.930;2022-08-19T04:56:52;19.60;;;17.98;;
27800;SDS011;15181;49.112;11.930;2022-08-19T04:59:20;20.50;;;18.70;;
27800;SDS011;15181;49.112;11.930;2022-08-19T05:01:49;17.85;;;16.45;;
27800;SDS011;15181;49.112;11.930;2022-08-19T05:04:17;18.25;;;16.77;;
27800;SDS011;15181;49.112;11.930;2022-08-19T05:06:45;18.95;;;17.40;;
27800;SDS011;15181;49.112;11.930;2022-08-19T05:09:13;19.38;;;17.67;;
27800;SDS011;15181;49.112;11.930;2022-08-19T05:11:42;20.90;;;19.23;;
27800;SDS011;15181;49.112;11.930;2022-08-19T05:14:09;20.55;;;18.85;;
27800;SDS011;15181;49.112;11.930;2022-08-19T05:16:38;19.23;;;17.73;;
27800;SDS011;15181;49.112;11.930;2022-08-19T05:19:07;18.60;;;16.98;;
27800;SDS011;15181;49.112;11.930;2022-08-19T05:21:52;21.25;;;19.40;;
27800;SDS011;15181;49.112;11.930;2022-08-19T05:24:36;18.42;;;17.02;;
27800;SDS011;15181;49.112;11.930;2022-08-19T05:27:03;19.02;;;17.52;;
27800;SDS011;15181;49.112;11.930;2022-08-19T05:29:31;20.55;;;18.80;;
27800;SDS011;15181;49.112;11.930;2022-08-19T05:32:00;19.45;;;17.85;;
27800;SDS011;15181;49.112;11.930;2022-08-19T05:34:31;20.35;;;18.58;;
27800;SDS011;15181;49.112;11.930;2022-08-19T05:36:58;19.60;;;17.90;;
27800;SDS011;15181;49.112;11.930;2022-08-19T05:39:28;21.27;;;19.17;;
27800;SDS011;15181;49.112;11.930;2022-08-19T05:41:58;20.35;;;18.63;;
27800;SDS011;15181;49.112;11.930;2022-08-19T05:44:27;20.08;;;18.27;;
27800;SDS011;15181;49.112;11.930;2022-08-19T05:46:57;20.58;;;18.95;;
27800;SDS011;15181;49.112;11.930;2022-08-19T05:49:24;21.45;;;19.63;;
27800;SDS011;15181;49.112;11.930;2022-08-19T05:51:54;21.17;;;19.48;;
27800;SDS011;15181;49.112;11.930;2022-08-19T05:54:21;19.75;;;18.08;;
27800;SDS011;15181;49.112;11.930;2022-08-19T05:56:50;18.15;;;16.75;;
27800;SDS011;15181;49.112;11.930;2022-08-19T05:59:21;17.50;;;16.10;;
27800;SDS011;15181;49.112;11.930;2022-08-19T06:01:49;19.52;;;17.92;;
27800;SDS011;15181;49.112;11.930;2022-08-19T06:04:19;18.42;;;16.65;;
27800;SDS011;15181;49.112;11.930;2022-08-19T06:06:48;18.83;;;17.25;;
27800;SDS011;15181;49.112;11.930;2022-08-19T06:09:19;21.10;;;19.30;;
27800;SDS011;15181;49.112;11.930;2022-08-19T06:11:48;18.63;;;17.02;;
27800;SDS011;15181;49.112;11.930;2022-08-19T06:14:19;17.05;;;15.65;;
27800;SDS011;15181;49.112;11.930;2022-08-19T06:16:48;20.23;;;18.42;;
27800;SDS011;15181;49.112;11.930;2022-08-19T06:19:17;19.10;;;17.50;;
27800;SDS011;15181;49.112;11.930;2022-08-19T06:21:47;18.45;;;17.00;;
27800;SDS011;15181;49.112;11.930;2022-08-19T06:24:16;20.10;;;18.27;;
27800;SDS011;15181;49.112;11.930;2022-08-19T06:26:48;20.67;;;18.95;;
27800;SDS011;15181;49.112;11.930;2022-08-19T06:29:18;21.15;;;19.40;;
27800;SDS011;15181;49.112;11.930;2022-08-19T06:31:48;19.45;;;17.85;;
27800;SDS011;15181;49.112;11.930;2022-08-19T06:34:17;19.85;;;18.25;;
27800;SDS011;15181;49.112;11.930;2022-08-19T06:36:46;19.15;;;17.50;;
27800;SDS011;15181;49.112;11.930;2022-08-19T06:39:15;17.88;;;16.48;;
27800;SDS011;15181;49.112;11.930;2022-08-19T06:41:46;20.05;;;18.38;;
27800;SDS011;15181;49.112;11.930;2022-08-19T06:44:14;19.67;;;17.98;;
27800;SDS011;15181;49.112;11.930;2022-08-19T06:46:42;17.65;;;16.25;;
27800;SDS011;15181;49.112;11.930;2022-08-19T06:49:09;19.65;;;18.05;;
27800;SDS011;15181;49.112;11.930;2022-08-19T06:51:39;19.80;;;18.20;;
27800;SDS011;15181;49.112;11.930;2022-08-19T06:54:07;17.80;;;16.30;;
27800;SDS011;15181;49.112;11.930;2022-08-19T06:56:36;18.95;;;17.35;;
27800;SDS011;15181;49.112;11.930;2022-08-19T06:59:06;18.83;;;17.23;;
27800;SDS011;15181;49.112;11.930;2022-08-19T07:01:36;18.88;;;17.38;;
27800;SDS011;15181;49.112;11.930;2022-08-19T07:04:05;18.65;;;17.17;;
27800;SDS011;15181;49.112;11.930;2022-08-19T07:06:34;20.08;;;18.38;;
27800;SDS011;15181;49.112;11.930;2022-08-19T07:09:02;17.77;;;16.27;;
27800;SDS011;15181;49.112;11.930;2022-08-19T07:11:32;19.25;;;17.45;;
27800;SDS011;15181;49.112;11.930;2022-08-19T07:14:00;21.48;;;19.50;;
27800;SDS011;15181;49.112;11.930;2022-08-19T07:16:28;18.17;;;16.73;;
27800;SDS011;15181;49.112;11.930;2022-08-19T07:18:55;19.13;;;17.42;;
27800;SDS011;15181;49.112;11.930;2022-08-19T07:21:24;20.38;;;18.67;;
27800;SDS011;15181;49.112;11.930;2022-08-19T07:23:53;18.75;;;17.15;;
27800;SDS011;15181;49.112;11.930;2022-08-19T07:26:23;19.52;;;17.73;;
27800;SDS011;15181;49.112;11.930;2022-08-19T07:28:52;19.75;;;17.98;;
27800;SDS011;15181;49.112;11.930;2022-08-19T07:31:20;20.33;;;18.48;;
27800;SDS011;15181;49.112;11.930;2022-08-19T07:33:51;19.55;;;18.00;;
27800;SDS011;15181;49.112;11.930;2022-08-19T07:36:22;18.52;;;17.02;;
27800;SDS011;15181;49.112;11.930;2022-08-19T07:38:57;17.58;;;16.05;;
27800;SDS011;15181;49.112;11.930;2022-08-19T07:41:27;17.45;;;15.95;;
27800;SDS011;15181;49.112;11.930;2022-08-19T07:43:56;18.10;;;16.50;;
27800;SDS011;15181;49.112;11.930;2022-08-19T07:46:29;17.20;;;15.70;;
27800;SDS011;15181;49.112;11.930;2022-08-19T07:48:59;18.52;;;16.92;;
27800;SDS011;15181;49.112;11.930;2022-08-19T07:51:28;18.70;;;17.05;;
27800;SDS011;15181;49.112;11.930;2022-08-19T07:53:55;18.00;;;16.33;;
27800;SDS011;15181;49.112;11.930;2022-08-19T07:56:22;17.05;;;15.70;;
27800;SDS011;15181;49.112;11.930;2022-08-19T07:58:50;17.65;;;15.73;;
27800;SDS011;15181;49.112;11.930;2022-08-19T08:01:19;17.30;;;15.70;;
27800;SDS011;15181;49.112;11.930;2022-08-19T08:03:49;17.30;;;15.88;;
27800;SDS011;15181;49.112;11.930;2022-08-19T08:06:36;16.60;;;15.23;;
27800;SDS011;15181;49.112;11.930;2022-08-19T08:09:21;17.15;;;15.60;;
27800;SDS011;15181;49.112;11.930;2022-08-19T08:11:53;18.10;;;16.55;;
27800;SDS011;15181;49.112;11.930;2022-08-19T08:14:23;17.35;;;15.73;;
27800;SDS011;15181;49.112;11.930;2022-08-19T08:16:52;18.48;;;16.88;;
27800;SDS011;15181;49.112;11.930;2022-08-19T08:19:20;19.50;;;17.65;;
27800;SDS011;15181;49.112;11.930;2022-08-19T08:21:50;18.83;;;17.23;;
27800;SDS011;15181;49.112;11.930;2022-08-19T08:24:17;19.23;;;17.63;;
27800;SDS011;15181;49.112;11.930;2022-08-19T08:26:46;18.95;;;17.35;;
27800;SDS011;15181;49.112;11.930;2022-08-19T08:29:13;21.25;;;19.45;;
27800;SDS011;15181;49.112;11.930;2022-08-19T08:31:42;20.17;;;18.58;;
27800;SDS011;15181;49.112;11.930;2022-08-19T08:34:11;20.80;;;18.90;;
27800;SDS011;15181;49.112;11.930;2022-08-19T08:36:38;19.98;;;18.17;;
27800;SDS011;15181;49.112;11.930;2022-08-19T08:39:10;18.70;;;17.20;;
27800;SDS011;15181;49.112;11.930;2022-08-19T08:41:40;19.80;;;18.00;;
27800;SDS011;15181;49.112;11.930;2022-08-19T08:44:14;20.20;;;18.33;;
27800;SDS011;15181;49.112;11.930;2022-08-19T08:46:45;19.38;;;17.48;;
27800;SDS011;15181;49.112;11.930;2022-08-19T08:49:18;18.58;;;16.98;;
27800;SDS011;15181;49.112;11.930;2022-08-19T08:51:54;18.27;;;16.67;;
27800;SDS011;15181;49.112;11.930;2022-08-19T08:54:29;17.95;;;16.35;;
27800;SDS011;15181;49.112;11.930;2022-08-19T08:56:59;17.48;;;15.98;;
27800;SDS011;15181;49.112;11.930;2022-08-19T08:59:28;17.67;;;16.17;;
27800;SDS011;15181;49.112;11.930;2022-08-19T09:01:58;17.60;;;16.10;;
27800;SDS011;15181;49.112;11.930;2022-08-19T09:04:26;18.90;;;17.10;;
27800;SDS011;15181;49.112;11.930;2022-08-19T09:06:55;17.83;;;16.30;;
27800;SDS011;15181;49.112;11.930;2022-08-19T09:09:42;17.83;;;16.20;;
27800;SDS011;15181;49.112;11.930;2022-08-19T09:12:13;17.92;;;16.23;;
27800;SDS011;15181;49.112;11.930;2022-08-19T09:14:49;17.25;;;15.55;;
27800;SDS011;15181;49.112;11.930;2022-08-19T09:17:21;16.58;;;15.07;;
27800;SDS011;15181;49.112;11.930;2022-08-19T09:19:54;16.02;;;14.52;;
27800;SDS011;15181;49.112;11.930;2022-08-19T09:22:23;16.65;;;15.10;;
27800;SDS011;15181;49.112;11.930;2022-08-19T09:24:53;15.90;;;14.50;;
27800;SDS011;15181;49.112;11.930;2022-08-19T09:27:22;15.60;;;14.20;;
27800;SDS011;15181;49.112;11.930;2022-08-19T09:29:51;17.25;;;15.60;;
27800;SDS011;15181;49.112;11.930;2022-08-19T09:32:19;15.32;;;14.00;;
27800;SDS011;15181;49.112;11.930;2022-08-19T09:34:46;14.52;;;13.23;;
27800;SDS011;15181;49.112;11.930;2022-08-19T09:37:13;15.60;;;14.10;;
27800;SDS011;15181;49.112;11.930;2022-08-19T09:39:40;15.70;;;14.15;;
27800;SDS011;15181;49.112;11.930;2022-08-19T09:42:10;15.75;;;14.15;;
27800;SDS011;15181;49.112;11.930;2022-08-19T09:44:38;14.82;;;13.32;;
27800;SDS011;15181;49.112;11.930;2022-08-19T09:47:07;15.65;;;14.25;;
27800;SDS011;15181;49.112;11.930;2022-08-19T09:49:35;14.65;;;13.45;;
27800;SDS011;15181;49.112;11.930;2022-08-19T09:52:04;15.02;;;13.73;;
27800;SDS011;15181;49.112;11.930;2022-08-19T09:54:32;14.35;;;13.15;;
27800;SDS011;15181;49.112;11.930;2022-08-19T09:57:00;14.95;;;13.70;;
27800;SDS011;15181;49.112;11.930;2022-08-19T09:59:28;15.60;;;14.30;;
27800;SDS011;15181;49.112;11.930;2022-08-19T10:01:55;15.27;;;13.80;;
27800;SDS011;15181;49.112;11.930;2022-08-19T10:04:23;15.68;;;14.27;;
27800;SDS011;15181;49.112;11.930;2022-08-19T10:07:10;15.13;;;13.82;;
27800;SDS011;15181;49.112;11.930;2022-08-19T10:09:37;15.77;;;14.20;;
27800;SDS011;15181;49.112;11.930;2022-08-19T10:12:06;15.48;;;14.18;;
27800;SDS011;15181;49.112;11.930;2022-08-19T10:14:35;14.43;;;13.20;;
27800;SDS011;15181;49.112;11.930;2022-08-19T10:17:04;14.77;;;13.55;;
27800;SDS011;15181;49.112;11.930;2022-08-19T10:19:31;13.68;;;12.48;;
27800;SDS011;15181;49.112;11.930;2022-08-19T10:22:02;14.25;;;13.02;;
27800;SDS011;15181;49.112;11.930;2022-08-19T10:24:30;13.93;;;12.73;;
27800;SDS011;15181;49.112;11.930;2022-08-19T10:26:59;13.85;;;12.65;;
27800;SDS011;15181;49.112;11.930;2022-08-19T10:29:28;14.18;;;12.98;;
27800;SDS011;15181;49.112;11.930;2022-08-19T10:31:58;13.20;;;12.15;;
27800;SDS011;15181;49.112;11.930;2022-08-19T10:34:28;14.50;;;13.30;;
27800;SDS011;15181;49.112;11.930;2022-08-19T10:36:56;16.05;;;14.63;;
27800;SDS011;15181;49.112;11.930;2022-08-19T10:39:26;14.75;;;13.48;;
27800;SDS011;15181;49.112;11.930;2022-08-19T10:41:55;15.75;;;14.45;;
27800;SDS011;15181;49.112;11.930;2022-08-19T10:44:22;16.17;;;14.77;;
27800;SDS011;15181;49.112;11.930;2022-08-19T10:46:50;16.65;;;15.30;;
27800;SDS011;15181;49.112;11.930;2022-08-19T10:49:19;15.88;;;14.50;;
27800;SDS011;15181;49.112;11.930;2022-08-19T10:51:46;15.73;;;14.38;;
27800;SDS011;15181;49.112;11.930;2022-08-19T10:57:13;15.80;;;14.50;;
27800;SDS011;15181;49.112;11.930;2022-08-19T10:59:43;15.48;;;14.23;;
27800;SDS011;15181;49.112;11.930;2022-08-19T11:02:11;15.57;;;14.35;;
27800;SDS011;15181;49.112;11.930;2022-08-19T11:04:41;17.08;;;15.68;;
27800;SDS011;15181;49.112;11.930;2022-08-19T11:07:10;17.40;;;15.27;;
27800;SDS011;15181;49.112;11.930;2022-08-19T11:09:38;17.23;;;15.73;;
27800;SDS011;15181;49.112;11.930;2022-08-19T11:12:17;16.73;;;15.32;;
27800;SDS011;15181;49.112;11.930;2022-08-19T11:14:45;17.85;;;16.25;;
27800;SDS011;15181;49.112;11.930;2022-08-19T11:17:14;17.25;;;15.75;;
27800;SDS011;15181;49.112;11.930;2022-08-19T11:19:47;16.05;;;14.75;;
27800;SDS011;15181;49.112;11.930;2022-08-19T11:22:14;16.50;;;15.10;;
27800;SDS011;15181;49.112;11.930;2022-08-19T11:24:42;15.63;;;14.23;;
27800;SDS011;15181;49.112;11.930;2022-08-19T11:27:10;16.13;;;14.75;;
27800;SDS011;15181;49.112;11.930;2022-08-19T11:29:39;15.77;;;14.43;;
27800;SDS011;15181;49.112;11.930;2022-08-19T11:32:09;43.67;;;28.48;;
27800;SDS011;15181;49.112;11.930;2022-08-19T11:34:37;23.30;;;18.42;;
27800;SDS011;15181;49.112;11.930;2022-08-19T11:37:07;14.48;;;13.27;;
27800;SDS011;15181;49.112;11.930;2022-08-19T11:39:35;14.52;;;13.32;;
27800;SDS011;15181;49.112;11.930;2022-08-19T11:42:03;14.68;;;13.40;;
27800;SDS011;15181;49.112;11.930;2022-08-19T11:44:52;13.52;;;12.32;;
27800;SDS011;15181;49.112;11.930;2022-08-19T11:47:22;13.82;;;12.63;;
27800;SDS011;15181;49.112;11.930;2022-08-19T11:49:50;23.42;;;15.82;;
27800;SDS011;15181;49.112;11.930;2022-08-19T11:52:20;13.98;;;12.70;;
27800;SDS011;15181;49.112;11.930;2022-08-19T11:54:47;13.02;;;11.95;;
27800;SDS011;15181;49.112;11.930;2022-08-19T11:57:14;13.25;;;12.15;;
27800;SDS011;15181;49.112;11.930;2022-08-19T11:59:42;12.77;;;11.77;;
27800;SDS011;15181;49.112;11.930;2022-08-19T12:02:13;12.85;;;11.75;;
27800;SDS011;15181;49.112;11.930;2022-08-19T12:04:41;12.70;;;11.68;;
27800;SDS011;15181;49.112;11.930;2022-08-19T12:07:08;13.13;;;12.02;;
27800;SDS011;15181;49.112;11.930;2022-08-19T12:09:36;13.07;;;11.95;;
27800;SDS011;15181;49.112;11.930;2022-08-19T12:12:04;12.55;;;11.50;;
27800;SDS011;15181;49.112;11.930;2022-08-19T12:14:31;13.40;;;12.20;;
27800;SDS011;15181;49.112;11.930;2022-08-19T12:16:59;13.27;;;12.18;;
27800;SDS011;15181;49.112;11.930;2022-08-19T12:19:27;13.05;;;11.95;;
27800;SDS011;15181;49.112;11.930;2022-08-19T12:21:57;13.07;;;11.98;;
27800;SDS011;15181;49.112;11.930;2022-08-19T12:24:26;13.13;;;11.95;;
27800;SDS011;15181;49.112;11.930;2022-08-19T12:26:58;12.90;;;11.90;;
27800;SDS011;15181;49.112;11.930;2022-08-19T12:29:26;13.85;;;12.65;;
27800;SDS011;15181;49.112;11.930;2022-08-19T12:31:55;13.57;;;12.48;;
27800;SDS011;15181;49.112;11.930;2022-08-19T12:34:27;15.25;;;13.82;;
27800;SDS011;15181;49.112;11.930;2022-08-19T12:36:56;13.40;;;12.20;;
27800;SDS011;15181;49.112;11.930;2022-08-19T12:39:23;15.82;;;12.52;;
27800;SDS011;15181;49.112;11.930;2022-08-19T12:41:51;14.68;;;13.32;;
27800;SDS011;15181;49.112;11.930;2022-08-19T12:44:21;14.23;;;13.07;;
27800;SDS011;15181;49.112;11.930;2022-08-19T12:46:49;13.88;;;12.68;;
27800;SDS011;15181;49.112;11.930;2022-08-19T12:49:16;13.63;;;12.40;;
27800;SDS011;15181;49.112;11.930;2022-08-19T12:51:43;14.88;;;13.57;;
27800;SDS011;15181;49.112;11.930;2022-08-19T12:54:11;14.30;;;13.00;;
27800;SDS011;15181;49.112;11.930;2022-08-19T12:56:40;14.68;;;13.27;;
27800;SDS011;15181;49.112;11.930;2022-08-19T12:59:07;14.10;;;12.95;;
27800;SDS011;15181;49.112;11.930;2022-08-19T13:01:37;14.93;;;13.57;;
27800;SDS011;15181;49.112;11.930;2022-08-19T13:04:05;14.23;;;13.13;;
27800;SDS011;15181;49.112;11.930;2022-08-19T13:06:35;14.63;;;13.32;;
27800;SDS011;15181;49.112;11.930;2022-08-19T13:09:04;14.18;;;12.88;;
27800;SDS011;15181;49.112;11.930;2022-08-19T13:11:32;14.00;;;12.80;;
27800;SDS011;15181;49.112;11.930;2022-08-19T13:13:59;14.85;;;13.45;;
27800;SDS011;15181;49.112;11.930;2022-08-19T13:16:29;15.15;;;13.85;;
27800;SDS011;15181;49.112;11.930;2022-08-19T13:18:58;14.55;;;13.35;;
27800;SDS011;15181;49.112;11.930;2022-08-19T13:21:28;14.32;;;13.02;;
27800;SDS011;15181;49.112;11.930;2022-08-19T13:23:55;14.93;;;13.65;;
27800;SDS011;15181;49.112;11.930;2022-08-19T13:26:23;13.95;;;12.75;;
27800;SDS011;15181;49.112;11.930;2022-08-19T13:28:50;13.82;;;12.60;;
27800;SDS011;15181;49.112;11.930;2022-08-19T13:31:35;15.70;;;14.27;;
27800;SDS011;15181;49.112;11.930;2022-08-19T13:34:27;15.20;;;13.90;;
27800;SDS011;15181;49.112;11.930;2022-08-19T13:36:57;14.75;;;13.45;;
27800;SDS011;15181;49.112;11.930;2022-08-19T13:39:28;14.65;;;13.27;;
27800;SDS011;15181;49.112;11.930;2022-08-19T13:41:55;13.82;;;12.60;;
27800;SDS011;15181;49.112;11.930;2022-08-19T13:44:24;14.07;;;12.88;;
27800;SDS011;15181;49.112;11.930;2022-08-19T13:46:51;14.10;;;12.90;;
27800;SDS011;15181;49.112;11.930;2022-08-19T13:49:19;15.05;;;13.23;;
27800;SDS011;15181;49.112;11.930;2022-08-19T13:51:49;14.05;;;12.85;;
27800;SDS011;15181;49.112;11.930;2022-08-19T13:54:16;12.90;;;11.80;;
27800;SDS011;15181;49.112;11.930;2022-08-19T13:56:44;14.60;;;13.32;;
27800;SDS011;15181;49.112;11.930;2022-08-19T13:59:12;14.20;;;13.05;;
27800;SDS011;15181;49.112;11.930;2022-08-19T14:01:40;14.55;;;13.25;;
27800;SDS011;15181;49.112;11.930;2022-08-19T14:04:09;13.75;;;12.60;;
27800;SDS011;15181;49.112;11.930;2022-08-19T14:06:36;14.05;;;12.85;;
27800;SDS011;15181;49.112;11.930;2022-08-19T14:09:06;14.23;;;13.05;;
27800;SDS011;15181;49.112;11.930;2022-08-19T14:11:33;13.70;;;12.50;;
27800;SDS011;15181;49.112;11.930;2022-08-19T14:14:00;14.50;;;13.00;;
27800;SDS011;15181;49.112;11.930;2022-08-19T14:16:28;14.32;;;13.15;;
27800;SDS011;15181;49.112;11.930;2022-08-19T14:18:55;14.15;;;12.85;;
27800;SDS011;15181;49.112;11.930;2022-08-19T14:21:23;13.88;;;12.77;;
27800;SDS011;15181;49.112;11.930;2022-08-19T14:23:51;13.35;;;12.25;;